sensor_id;sensor_type;location;lat;lon;timestamp;temperature;humidity
69823;SHT31;57119;52.516;13.508;2022-08-19T00:00:20;20.96;97.87
69823;SHT31;57119;52.516;13.508;2022-08-19T00:02:45;20.98;97.39
69823;SHT31;57119;52.516;13.508;2022-08-19T00:05:13;21.05;96.96
69823;SHT31;57119;52.516;13.508;2022-08-19T00:07:39;21.04;97.14
69823;SHT31;57119;52.516;13.508;2022-08-19T00:10:06;20.96;97.03
69823;SHT31;57119;52.516;13.508;2022-08-19T00:12:32;20.96;97.93
69823;SHT31;57119;52.516;13.508;2022-08-19T00:14:57;20.96;97.83
69823;SHT31;57119;52.516;13.508;2022-08-19T00:17:22;21.02;97.04
69823;SHT31;57119;52.516;13.508;2022-08-19T00:19:48;21.01;96.55
69823;SHT31;57119;52.516;13.508;2022-08-19T00:22:13;20.98;97.59
69823;SHT31;57119;52.516;13.508;2022-08-19T00:24:38;20.99;97.97
69823;SHT31;57119;52.516;13.508;2022-08-19T00:27:06;21.05;97.82
69823;SHT31;57119;52.516;13.508;2022-08-19T00:29:31;21.02;98.21
69823;SHT31;57119;52.516;13.508;2022-08-19T00:31:57;21.05;98.00
69823;SHT31;57119;52.516;13.508;2022-08-19T00:34:23;20.91;97.94
69823;SHT31;57119;52.516;13.508;2022-08-19T00:36:50;20.85;98.30
69823;SHT31;57119;52.516;13.508;2022-08-19T00:39:16;20.88;98.55
69823;SHT31;57119;52.516;13.508;2022-08-19T00:41:43;20.84;98.97
69823;SHT31;57119;52.516;13.508;2022-08-19T00:44:21;20.75;98.77
69823;SHT31;57119;52.516;13.508;2022-08-19T00:46:50;20.81;99.31
69823;SHT31;57119;52.516;13.508;2022-08-19T00:51:51;20.70;99.16
69823;SHT31;57119;52.516;13.508;2022-08-19T00:54:19;20.67;99.43
69823;SHT31;57119;52.516;13.508;2022-08-19T00:56:46;20.58;99.81
69823;SHT31;57119;52.516;13.508;2022-08-19T00:59:12;20.71;99.66
69823;SHT31;57119;52.516;13.508;2022-08-19T01:01:41;20.71;99.38
69823;SHT31;57119;52.516;13.508;2022-08-19T01:04:07;20.74;99.24
69823;SHT31;57119;52.516;13.508;2022-08-19T01:06:33;20.68;99.22
69823;SHT31;57119;52.516;13.508;2022-08-19T01:09:00;20.57;99.21
69823;SHT31;57119;52.516;13.508;2022-08-19T01:11:30;20.61;99.35
69823;SHT31;57119;52.516;13.508;2022-08-19T01:13:57;20.63;99.76
69823;SHT31;57119;52.516;13.508;2022-08-19T01:16:25;20.47;99.77
69823;SHT31;57119;52.516;13.508;2022-08-19T01:18:52;20.34;99.99
69823;SHT31;57119;52.516;13.508;2022-08-19T01:21:42;20.47;99.99
69823;SHT31;57119;52.516;13.508;2022-08-19T01:24:09;20.40;99.99
69823;SHT31;57119;52.516;13.508;2022-08-19T01:26:41;20.32;99.99
69823;SHT31;57119;52.516;13.508;2022-08-19T01:29:08;20.40;99.99
69823;SHT31;57119;52.516;13.508;2022-08-19T01:31:34;20.40;99.99
69823;SHT31;57119;52.516;13.508;2022-08-19T01:34:01;20.56;99.99
69823;SHT31;57119;52.516;13.508;2022-08-19T01:36:40;20.53;99.99
69823;SHT31;57119;52.516;13.508;2022-08-19T01:39:10;20.51;99.99
69823;SHT31;57119;52.516;13.508;2022-08-19T01:41:36;20.40;99.99
69823;SHT31;57119;52.516;13.508;2022-08-19T01:44:05;20.44;99.99
69823;SHT31;57119;52.516;13.508;2022-08-19T01:46:31;20.43;99.99
69823;SHT31;57119;52.516;13.508;2022-08-19T01:48:57;20.44;99.99
69823;SHT31;57119;52.516;13.508;2022-08-19T01:51:23;20.46;99.99
69823;SHT31;57119;52.516;13.508;2022-08-19T01:53:49;20.36;99.99
69823;SHT31;57119;52.516;13.508;2022-08-19T01:56:16;20.37;99.99
69823;SHT31;57119;52.516;13.508;2022-08-19T01:58:46;20.27;99.99
69823;SHT31;57119;52.516;13.508;2022-08-19T02:01:13;20.19;99.92
69823;SHT31;57119;52.516;13.508;2022-08-19T02:03:39;20.25;99.99
69823;SHT31;57119;52.516;13.508;2022-08-19T02:06:04;20.19;99.99
69823;SHT31;57119;52.516;13.508;2022-08-19T02:08:31;20.19;99.99
69823;SHT31;57119;52.516;13.508;2022-08-19T02:10:57;20.12;99.99
69823;SHT31;57119;52.516;13.508;2022-08-19T02:13:23;20.15;99.99
69823;SHT31;57119;52.516;13.508;2022-08-19T02:15:48;20.19;99.99
69823;SHT31;57119;52.516;13.508;2022-08-19T02:18:14;20.09;99.99
69823;SHT31;57119;52.516;13.508;2022-08-19T02:20:41;20.12;99.99
69823;SHT31;57119;52.516;13.508;2022-08-19T02:23:07;20.15;99.99
69823;SHT31;57119;52.516;13.508;2022-08-19T02:25:33;20.12;99.99
69823;SHT31;57119;52.516;13.508;2022-08-19T02:27:58;20.09;99.99
69823;SHT31;57119;52.516;13.508;2022-08-19T02:30:24;20.08;99.99
69823;SHT31;57119;52.516;13.508;2022-08-19T02:32:51;20.10;99.99
69823;SHT31;57119;52.516;13.508;2022-08-19T02:35:16;20.08;99.99
69823;SHT31;57119;52.516;13.508;2022-08-19T02:37:42;20.15;99.99
69823;SHT31;57119;52.516;13.508;2022-08-19T02:40:27;20.15;99.99
69823;SHT31;57119;52.516;13.508;2022-08-19T02:42:53;20.12;99.99
69823;SHT31;57119;52.516;13.508;2022-08-19T02:45:19;20.19;99.99
69823;SHT31;57119;52.516;13.508;2022-08-19T02:47:44;20.23;99.99
69823;SHT31;57119;52.516;13.508;2022-08-19T02:50:10;20.20;99.99
69823;SHT31;57119;52.516;13.508;2022-08-19T02:52:35;20.17;99.99
69823;SHT31;57119;52.516;13.508;2022-08-19T02:55:01;20.20;99.99
69823;SHT31;57119;52.516;13.508;2022-08-19T02:57:27;20.23;99.99
69823;SHT31;57119;52.516;13.508;2022-08-19T02:59:52;20.13;99.99
69823;SHT31;57119;52.516;13.508;2022-08-19T03:02:18;20.10;99.99
69823;SHT31;57119;52.516;13.508;2022-08-19T03:04:44;20.08;99.99
69823;SHT31;57119;52.516;13.508;2022-08-19T03:07:15;20.08;99.99
69823;SHT31;57119;52.516;13.508;2022-08-19T03:09:41;20.04;99.99
69823;SHT31;57119;52.516;13.508;2022-08-19T03:12:07;20.08;99.99
69823;SHT31;57119;52.516;13.508;2022-08-19T03:14:33;19.99;99.99
69823;SHT31;57119;52.516;13.508;2022-08-19T03:16:59;20.00;99.99
69823;SHT31;57119;52.516;13.508;2022-08-19T03:19:25;20.04;99.99
69823;SHT31;57119;52.516;13.508;2022-08-19T03:21:50;19.95;99.99
69823;SHT31;57119;52.516;13.508;2022-08-19T03:24:16;19.88;99.99
69823;SHT31;57119;52.516;13.508;2022-08-19T03:26:45;19.90;99.99
69823;SHT31;57119;52.516;13.508;2022-08-19T03:29:11;19.88;99.99
69823;SHT31;57119;52.516;13.508;2022-08-19T03:31:38;19.86;99.99
69823;SHT31;57119;52.516;13.508;2022-08-19T03:34:03;19.82;99.99
69823;SHT31;57119;52.516;13.508;2022-08-19T03:36:29;19.86;99.99
69823;SHT31;57119;52.516;13.508;2022-08-19T03:38:57;19.83;99.99
69823;SHT31;57119;52.516;13.508;2022-08-19T03:41:25;19.86;99.99
69823;SHT31;57119;52.516;13.508;2022-08-19T03:43:52;19.82;99.99
69823;SHT31;57119;52.516;13.508;2022-08-19T03:46:23;19.82;99.99
69823;SHT31;57119;52.516;13.508;2022-08-19T03:48:52;19.86;99.99
69823;SHT31;57119;52.516;13.508;2022-08-19T03:51:31;19.83;99.99
69823;SHT31;57119;52.516;13.508;2022-08-19T03:53:59;19.85;99.99
69823;SHT31;57119;52.516;13.508;2022-08-19T03:56:25;19.85;99.99
69823;SHT31;57119;52.516;13.508;2022-08-19T03:58:52;19.86;99.99
69823;SHT31;57119;52.516;13.508;2022-08-19T04:01:19;19.79;99.99
69823;SHT31;57119;52.516;13.508;2022-08-19T04:03:45;19.83;99.99
69823;SHT31;57119;52.516;13.508;2022-08-19T04:06:25;19.82;99.99
69823;SHT31;57119;52.516;13.508;2022-08-19T04:08:53;19.85;99.99
69823;SHT31;57119;52.516;13.508;2022-08-19T04:11:22;19.88;99.99
69823;SHT31;57119;52.516;13.508;2022-08-19T04:13:48;19.88;99.99
69823;SHT31;57119;52.516;13.508;2022-08-19T04:16:17;19.85;99.99
69823;SHT31;57119;52.516;13.508;2022-08-19T04:18:42;19.89;99.99
69823;SHT31;57119;52.516;13.508;2022-08-19T04:21:08;19.89;99.99
69823;SHT31;57119;52.516;13.508;2022-08-19T04:23:40;19.90;99.99
69823;SHT31;57119;52.516;13.508;2022-08-19T04:26:05;19.99;99.99
69823;SHT31;57119;52.516;13.508;2022-08-19T04:28:31;20.00;99.96
69823;SHT31;57119;52.516;13.508;2022-08-19T04:30:56;20.02;99.99
69823;SHT31;57119;52.516;13.508;2022-08-19T04:33:24;20.04;99.98
69823;SHT31;57119;52.516;13.508;2022-08-19T04:35:52;20.09;99.99
69823;SHT31;57119;52.516;13.508;2022-08-19T04:38:20;20.15;99.63
69823;SHT31;57119;52.516;13.508;2022-08-19T04:40:49;20.13;99.90
69823;SHT31;57119;52.516;13.508;2022-08-19T04:43:34;20.27;99.73
69823;SHT31;57119;52.516;13.508;2022-08-19T04:46:12;20.25;99.61
69823;SHT31;57119;52.516;13.508;2022-08-19T04:48:38;20.30;98.93
69823;SHT31;57119;52.516;13.508;2022-08-19T04:51:09;20.39;98.77
69823;SHT31;57119;52.516;13.508;2022-08-19T04:53:36;20.43;98.72
69823;SHT31;57119;52.516;13.508;2022-08-19T04:56:09;20.46;98.70
69823;SHT31;57119;52.516;13.508;2022-08-19T04:58:36;20.53;98.57
69823;SHT31;57119;52.516;13.508;2022-08-19T05:01:02;20.57;98.17
69823;SHT31;57119;52.516;13.508;2022-08-19T05:03:28;20.51;97.74
69823;SHT31;57119;52.516;13.508;2022-08-19T05:06:03;20.56;98.17
69823;SHT31;57119;52.516;13.508;2022-08-19T05:08:28;20.53;98.39
69823;SHT31;57119;52.516;13.508;2022-08-19T05:10:54;20.53;97.63
69823;SHT31;57119;52.516;13.508;2022-08-19T05:13:19;20.60;98.05
69823;SHT31;57119;52.516;13.508;2022-08-19T05:15:54;20.57;97.81
69823;SHT31;57119;52.516;13.508;2022-08-19T05:18:20;20.58;97.93
69823;SHT31;57119;52.516;13.508;2022-08-19T05:21:13;20.67;98.26
69823;SHT31;57119;52.516;13.508;2022-08-19T05:23:57;20.75;97.85
69823;SHT31;57119;52.516;13.508;2022-08-19T05:26:24;20.73;97.04
69823;SHT31;57119;52.516;13.508;2022-08-19T05:28:54;20.90;97.24
69823;SHT31;57119;52.516;13.508;2022-08-19T05:31:20;20.90;96.83
69823;SHT31;57119;52.516;13.508;2022-08-19T05:33:45;20.92;96.28
69823;SHT31;57119;52.516;13.508;2022-08-19T05:36:11;20.98;96.54
69823;SHT31;57119;52.516;13.508;2022-08-19T05:38:36;20.95;95.95
69823;SHT31;57119;52.516;13.508;2022-08-19T05:41:09;21.02;96.37
69823;SHT31;57119;52.516;13.508;2022-08-19T05:43:36;21.11;95.96
69823;SHT31;57119;52.516;13.508;2022-08-19T05:46:02;21.14;96.31
69823;SHT31;57119;52.516;13.508;2022-08-19T05:48:29;21.25;95.64
69823;SHT31;57119;52.516;13.508;2022-08-19T05:50:55;21.39;95.62
69823;SHT31;57119;52.516;13.508;2022-08-19T05:53:20;21.57;95.35
69823;SHT31;57119;52.516;13.508;2022-08-19T05:55:45;21.62;95.32
69823;SHT31;57119;52.516;13.508;2022-08-19T05:58:11;21.73;95.19
69823;SHT31;57119;52.516;13.508;2022-08-19T06:00:37;21.76;94.39
69823;SHT31;57119;52.516;13.508;2022-08-19T06:03:03;21.73;94.93
69823;SHT31;57119;52.516;13.508;2022-08-19T06:05:31;21.64;95.06
69823;SHT31;57119;52.516;13.508;2022-08-19T06:07:56;21.60;95.10
69823;SHT31;57119;52.516;13.508;2022-08-19T06:10:24;21.62;95.36
69823;SHT31;57119;52.516;13.508;2022-08-19T06:12:50;21.67;94.89
69823;SHT31;57119;52.516;13.508;2022-08-19T06:15:15;21.67;95.30
69823;SHT31;57119;52.516;13.508;2022-08-19T06:17:41;21.71;94.94
69823;SHT31;57119;52.516;13.508;2022-08-19T06:20:10;21.76;95.06
69823;SHT31;57119;52.516;13.508;2022-08-19T06:22:42;21.84;94.74
69823;SHT31;57119;52.516;13.508;2022-08-19T06:25:08;21.93;94.37
69823;SHT31;57119;52.516;13.508;2022-08-19T06:27:34;22.10;94.24
69823;SHT31;57119;52.516;13.508;2022-08-19T06:30:01;22.14;93.98
69823;SHT31;57119;52.516;13.508;2022-08-19T06:32:26;22.25;93.95
69823;SHT31;57119;52.516;13.508;2022-08-19T06:34:51;22.28;92.84
69823;SHT31;57119;52.516;13.508;2022-08-19T06:37:17;22.37;93.33
69823;SHT31;57119;52.516;13.508;2022-08-19T06:39:44;22.49;93.33
69823;SHT31;57119;52.516;13.508;2022-08-19T06:42:11;22.49;93.46
69823;SHT31;57119;52.516;13.508;2022-08-19T06:44:40;22.60;92.76
69823;SHT31;57119;52.516;13.508;2022-08-19T06:47:07;22.72;92.76
69823;SHT31;57119;52.516;13.508;2022-08-19T06:49:34;22.66;92.94
69823;SHT31;57119;52.516;13.508;2022-08-19T06:52:00;22.65;92.23
69823;SHT31;57119;52.516;13.508;2022-08-19T06:54:26;22.63;92.04
69823;SHT31;57119;52.516;13.508;2022-08-19T06:56:53;22.80;91.84
69823;SHT31;57119;52.516;13.508;2022-08-19T06:59:20;22.76;92.28
69823;SHT31;57119;52.516;13.508;2022-08-19T07:01:49;22.76;91.40
69823;SHT31;57119;52.516;13.508;2022-08-19T07:04:18;22.72;92.24
69823;SHT31;57119;52.516;13.508;2022-08-19T07:06:44;22.85;91.62
69823;SHT31;57119;52.516;13.508;2022-08-19T07:09:12;22.85;91.62
69823;SHT31;57119;52.516;13.508;2022-08-19T07:11:38;22.93;91.76
69823;SHT31;57119;52.516;13.508;2022-08-19T07:14:04;22.90;91.94
69823;SHT31;57119;52.516;13.508;2022-08-19T07:16:31;22.82;92.27
69823;SHT31;57119;52.516;13.508;2022-08-19T07:18:57;22.95;91.52
69823;SHT31;57119;52.516;13.508;2022-08-19T07:21:25;22.79;91.82
69823;SHT31;57119;52.516;13.508;2022-08-19T07:23:54;22.85;91.80
69823;SHT31;57119;52.516;13.508;2022-08-19T07:26:22;22.92;91.78
69823;SHT31;57119;52.516;13.508;2022-08-19T07:28:48;22.92;92.10
69823;SHT31;57119;52.516;13.508;2022-08-19T07:31:17;23.07;91.62
69823;SHT31;57119;52.516;13.508;2022-08-19T07:33:47;23.06;91.90
69823;SHT31;57119;52.516;13.508;2022-08-19T07:36:17;23.14;91.40
69823;SHT31;57119;52.516;13.508;2022-08-19T07:38:46;23.16;90.98
69823;SHT31;57119;52.516;13.508;2022-08-19T07:41:16;23.10;91.54
69823;SHT31;57119;52.516;13.508;2022-08-19T07:43:41;23.07;91.75
69823;SHT31;57119;52.516;13.508;2022-08-19T07:46:09;23.14;91.24
69823;SHT31;57119;52.516;13.508;2022-08-19T07:48:34;23.03;90.99
69823;SHT31;57119;52.516;13.508;2022-08-19T07:51:03;22.96;91.69
69823;SHT31;57119;52.516;13.508;2022-08-19T07:53:30;22.99;91.48
69823;SHT31;57119;52.516;13.508;2022-08-19T07:55:56;23.04;90.94
69823;SHT31;57119;52.516;13.508;2022-08-19T07:58:25;23.04;91.60
69823;SHT31;57119;52.516;13.508;2022-08-19T08:00:50;23.23;91.50
69823;SHT31;57119;52.516;13.508;2022-08-19T08:03:18;23.25;90.87
69823;SHT31;57119;52.516;13.508;2022-08-19T08:05:44;23.28;90.46
69823;SHT31;57119;52.516;13.508;2022-08-19T08:08:29;23.31;90.35
69823;SHT31;57119;52.516;13.508;2022-08-19T08:11:00;23.43;90.59
69823;SHT31;57119;52.516;13.508;2022-08-19T08:13:27;23.58;90.25
69823;SHT31;57119;52.516;13.508;2022-08-19T08:15:52;23.54;89.54
69823;SHT31;57119;52.516;13.508;2022-08-19T08:18:18;23.50;88.88
69823;SHT31;57119;52.516;13.508;2022-08-19T08:20:45;23.72;89.35
69823;SHT31;57119;52.516;13.508;2022-08-19T08:23:11;23.75;89.41
69823;SHT31;57119;52.516;13.508;2022-08-19T08:25:50;23.90;88.54
69823;SHT31;57119;52.516;13.508;2022-08-19T08:28:17;24.13;88.05
69823;SHT31;57119;52.516;13.508;2022-08-19T08:30:42;24.41;87.32
69823;SHT31;57119;52.516;13.508;2022-08-19T08:33:09;24.77;85.63
69823;SHT31;57119;52.516;13.508;2022-08-19T08:35:35;24.89;85.77
69823;SHT31;57119;52.516;13.508;2022-08-19T08:38:00;25.36;85.63
69823;SHT31;57119;52.516;13.508;2022-08-19T08:43:29;26.69;81.60
69823;SHT31;57119;52.516;13.508;2022-08-19T08:46:05;27.04;78.56
69823;SHT31;57119;52.516;13.508;2022-08-19T08:48:44;26.70;79.00
69823;SHT31;57119;52.516;13.508;2022-08-19T08:51:15;26.22;81.15
69823;SHT31;57119;52.516;13.508;2022-08-19T08:53:44;26.56;80.29
69823;SHT31;57119;52.516;13.508;2022-08-19T08:56:12;26.99;78.35
69823;SHT31;57119;52.516;13.508;2022-08-19T08:59:01;26.76;79.37
69823;SHT31;57119;52.516;13.508;2022-08-19T09:01:29;26.38;80.30
69823;SHT31;57119;52.516;13.508;2022-08-19T09:03:54;26.42;81.15
69823;SHT31;57119;52.516;13.508;2022-08-19T09:06:35;25.98;80.58
69823;SHT31;57119;52.516;13.508;2022-08-19T09:12:21;25.98;80.69
69823;SHT31;57119;52.516;13.508;2022-08-19T09:14:56;26.63;79.44
69823;SHT31;57119;52.516;13.508;2022-08-19T09:17:25;26.75;77.70
69823;SHT31;57119;52.516;13.508;2022-08-19T09:20:16;26.48;78.84
69823;SHT31;57119;52.516;13.508;2022-08-19T09:22:43;26.39;79.38
69823;SHT31;57119;52.516;13.508;2022-08-19T09:25:10;26.63;79.22
69823;SHT31;57119;52.516;13.508;2022-08-19T09:27:37;27.17;78.28
69823;SHT31;57119;52.516;13.508;2022-08-19T09:30:04;27.68;75.73
69823;SHT31;57119;52.516;13.508;2022-08-19T09:32:30;27.35;77.20
69823;SHT31;57119;52.516;13.508;2022-08-19T09:34:55;27.44;76.74
69823;SHT31;57119;52.516;13.508;2022-08-19T09:37:24;26.94;77.36
69823;SHT31;57119;52.516;13.508;2022-08-19T09:39:50;26.78;77.98
69823;SHT31;57119;52.516;13.508;2022-08-19T09:42:16;26.17;79.33
69823;SHT31;57119;52.516;13.508;2022-08-19T09:44:42;26.21;79.75
69823;SHT31;57119;52.516;13.508;2022-08-19T09:47:10;26.49;78.72
69823;SHT31;57119;52.516;13.508;2022-08-19T09:49:37;26.60;77.87
69823;SHT31;57119;52.516;13.508;2022-08-19T09:52:03;26.14;78.90
69823;SHT31;57119;52.516;13.508;2022-08-19T09:54:28;26.06;79.23
69823;SHT31;57119;52.516;13.508;2022-08-19T09:56:54;25.75;80.27
69823;SHT31;57119;52.516;13.508;2022-08-19T09:59:20;25.64;82.29
69823;SHT31;57119;52.516;13.508;2022-08-19T10:01:46;25.69;81.46
69823;SHT31;57119;52.516;13.508;2022-08-19T10:04:11;25.93;80.91
69823;SHT31;57119;52.516;13.508;2022-08-19T10:06:38;26.24;79.46
69823;SHT31;57119;52.516;13.508;2022-08-19T10:09:06;26.79;78.26
69823;SHT31;57119;52.516;13.508;2022-08-19T10:11:33;27.26;77.24
69823;SHT31;57119;52.516;13.508;2022-08-19T10:14:01;27.52;75.52
69823;SHT31;57119;52.516;13.508;2022-08-19T10:16:26;26.90;77.35
69823;SHT31;57119;52.516;13.508;2022-08-19T10:18:52;27.14;76.96
69823;SHT31;57119;52.516;13.508;2022-08-19T10:21:25;27.35;76.40
69823;SHT31;57119;52.516;13.508;2022-08-19T10:23:52;28.14;73.72
69823;SHT31;57119;52.516;13.508;2022-08-19T10:26:29;28.57;72.79
69823;SHT31;57119;52.516;13.508;2022-08-19T10:28:56;28.87;71.73
69823;SHT31;57119;52.516;13.508;2022-08-19T10:31:24;28.43;72.93
69823;SHT31;57119;52.516;13.508;2022-08-19T10:33:51;28.81;71.33
69823;SHT31;57119;52.516;13.508;2022-08-19T10:36:23;28.69;71.71
69823;SHT31;57119;52.516;13.508;2022-08-19T10:38:51;28.61;72.38
69823;SHT31;57119;52.516;13.508;2022-08-19T10:41:25;28.71;72.12
69823;SHT31;57119;52.516;13.508;2022-08-19T10:43:53;28.36;73.36
69823;SHT31;57119;52.516;13.508;2022-08-19T10:46:21;28.17;73.68
69823;SHT31;57119;52.516;13.508;2022-08-19T10:48:48;27.56;75.55
69823;SHT31;57119;52.516;13.508;2022-08-19T10:51:13;27.41;76.19
69823;SHT31;57119;52.516;13.508;2022-08-19T10:53:58;27.10;76.59
69823;SHT31;57119;52.516;13.508;2022-08-19T10:56:24;26.97;77.17
69823;SHT31;57119;52.516;13.508;2022-08-19T10:59:08;26.66;78.23
69823;SHT31;57119;52.516;13.508;2022-08-19T11:01:35;26.82;77.20
69823;SHT31;57119;52.516;13.508;2022-08-19T11:04:02;26.72;78.34
69823;SHT31;57119;52.516;13.508;2022-08-19T11:06:28;26.46;78.37
69823;SHT31;57119;52.516;13.508;2022-08-19T11:08:55;26.38;78.55
69823;SHT31;57119;52.516;13.508;2022-08-19T11:11:21;26.17;78.19
69823;SHT31;57119;52.516;13.508;2022-08-19T11:13:46;26.04;79.67
69823;SHT31;57119;52.516;13.508;2022-08-19T11:16:19;26.08;79.03
69823;SHT31;57119;52.516;13.508;2022-08-19T11:18:50;25.57;80.21
69823;SHT31;57119;52.516;13.508;2022-08-19T11:21:22;25.33;81.51
69823;SHT31;57119;52.516;13.508;2022-08-19T11:23:49;25.26;81.84
69823;SHT31;57119;52.516;13.508;2022-08-19T11:26:16;25.36;80.82
69823;SHT31;57119;52.516;13.508;2022-08-19T11:28:42;25.35;80.84
69823;SHT31;57119;52.516;13.508;2022-08-19T11:31:27;26.41;78.40
69823;SHT31;57119;52.516;13.508;2022-08-19T11:33:55;26.69;77.53
69823;SHT31;57119;52.516;13.508;2022-08-19T11:36:21;26.36;78.89
69823;SHT31;57119;52.516;13.508;2022-08-19T11:38:49;25.87;79.42
69823;SHT31;57119;52.516;13.508;2022-08-19T11:41:16;25.90;80.27
69823;SHT31;57119;52.516;13.508;2022-08-19T11:43:42;26.06;79.37
69823;SHT31;57119;52.516;13.508;2022-08-19T11:46:10;25.90;79.34
69823;SHT31;57119;52.516;13.508;2022-08-19T11:48:37;26.02;79.58
69823;SHT31;57119;52.516;13.508;2022-08-19T11:51:08;26.18;78.79
69823;SHT31;57119;52.516;13.508;2022-08-19T11:53:36;26.22;78.74
69823;SHT31;57119;52.516;13.508;2022-08-19T11:56:03;26.18;78.37
69823;SHT31;57119;52.516;13.508;2022-08-19T11:58:30;26.50;78.71
69823;SHT31;57119;52.516;13.508;2022-08-19T12:00:55;26.66;78.03
69823;SHT31;57119;52.516;13.508;2022-08-19T12:03:21;26.56;77.57
69823;SHT31;57119;52.516;13.508;2022-08-19T12:05:47;26.62;77.58
69823;SHT31;57119;52.516;13.508;2022-08-19T12:08:13;26.69;77.16
69823;SHT31;57119;52.516;13.508;2022-08-19T12:10:39;26.48;77.59
69823;SHT31;57119;52.516;13.508;2022-08-19T12:13:07;26.29;78.51
69823;SHT31;57119;52.516;13.508;2022-08-19T12:15:37;25.77;79.42
69823;SHT31;57119;52.516;13.508;2022-08-19T12:18:04;25.88;79.53
69823;SHT31;57119;52.516;13.508;2022-08-19T12:20:30;25.97;79.88
69823;SHT31;57119;52.516;13.508;2022-08-19T12:22:55;26.15;78.67
69823;SHT31;57119;52.516;13.508;2022-08-19T12:25:20;25.98;79.22
69823;SHT31;57119;52.516;13.508;2022-08-19T12:27:46;26.04;78.84
69823;SHT31;57119;52.516;13.508;2022-08-19T12:30:13;26.18;78.53
69823;SHT31;57119;52.516;13.508;2022-08-19T12:32:39;26.08;78.80
69823;SHT31;57119;52.516;13.508;2022-08-19T12:35:06;26.26;78.44
69823;SHT31;57119;52.516;13.508;2022-08-19T12:37:31;26.49;77.77
69823;SHT31;57119;52.516;13.508;2022-08-19T12:39:57;26.73;77.44
69823;SHT31;57119;52.516;13.508;2022-08-19T12:42:23;26.70;76.77
69823;SHT31;57119;52.516;13.508;2022-08-19T12:44:48;26.41;77.74
69823;SHT31;57119;52.516;13.508;2022-08-19T12:47:14;26.14;78.38
69823;SHT31;57119;52.516;13.508;2022-08-19T12:49:40;26.29;77.99
69823;SHT31;57119;52.516;13.508;2022-08-19T12:52:07;26.31;77.80
69823;SHT31;57119;52.516;13.508;2022-08-19T12:54:34;27.04;75.47
69823;SHT31;57119;52.516;13.508;2022-08-19T12:56:59;27.69;74.87
69823;SHT31;57119;52.516;13.508;2022-08-19T12:59:26;30.24;68.88
69823;SHT31;57119;52.516;13.508;2022-08-19T13:01:52;32.23;63.58
69823;SHT31;57119;52.516;13.508;2022-08-19T13:04:18;33.88;58.31
69823;SHT31;57119;52.516;13.508;2022-08-19T13:06:43;32.85;59.44
69823;SHT31;57119;52.516;13.508;2022-08-19T13:09:09;31.08;64.52
69823;SHT31;57119;52.516;13.508;2022-08-19T13:11:35;29.68;66.74
69823;SHT31;57119;52.516;13.508;2022-08-19T13:14:02;28.75;69.54
69823;SHT31;57119;52.516;13.508;2022-08-19T13:16:28;28.50;69.42
69823;SHT31;57119;52.516;13.508;2022-08-19T13:18:55;27.72;71.66
69823;SHT31;57119;52.516;13.508;2022-08-19T13:21:23;27.23;73.55
69823;SHT31;57119;52.516;13.508;2022-08-19T13:23:49;26.99;74.85
69823;SHT31;57119;52.516;13.508;2022-08-19T13:26:16;26.57;75.49
69823;SHT31;57119;52.516;13.508;2022-08-19T13:28:43;26.94;75.07
69823;SHT31;57119;52.516;13.508;2022-08-19T13:31:31;27.34;74.64
69823;SHT31;57119;52.516;13.508;2022-08-19T13:34:18;28.07;72.29
69823;SHT31;57119;52.516;13.508;2022-08-19T13:36:44;27.83;72.03
69823;SHT31;57119;52.516;13.508;2022-08-19T13:39:09;27.81;71.58
69823;SHT31;57119;52.516;13.508;2022-08-19T13:41:36;27.35;74.01
69823;SHT31;57119;52.516;13.508;2022-08-19T13:44:02;27.26;73.51
69823;SHT31;57119;52.516;13.508;2022-08-19T13:46:28;27.96;73.10
69823;SHT31;57119;52.516;13.508;2022-08-19T13:48:54;28.95;69.57
69823;SHT31;57119;52.516;13.508;2022-08-19T13:51:20;29.34;68.28
69823;SHT31;57119;52.516;13.508;2022-08-19T13:53:45;28.55;70.55
69823;SHT31;57119;52.516;13.508;2022-08-19T13:56:13;28.37;70.88
69823;SHT31;57119;52.516;13.508;2022-08-19T13:58:39;27.83;71.91
69823;SHT31;57119;52.516;13.508;2022-08-19T14:01:06;27.58;72.21
69823;SHT31;57119;52.516;13.508;2022-08-19T14:03:33;27.31;72.64
69823;SHT31;57119;52.516;13.508;2022-08-19T14:05:58;26.97;73.10
69823;SHT31;57119;52.516;13.508;2022-08-19T14:08:25;26.32;75.04
69823;SHT31;57119;52.516;13.508;2022-08-19T14:10:53;25.87;76.38
69823;SHT31;57119;52.516;13.508;2022-08-19T14:13:20;25.47;77.47
69823;SHT31;57119;52.516;13.508;2022-08-19T14:15:46;25.43;78.34
69823;SHT31;57119;52.516;13.508;2022-08-19T14:18:13;25.49;78.85
69823;SHT31;57119;52.516;13.508;2022-08-19T14:20:39;25.45;78.05
69823;SHT31;57119;52.516;13.508;2022-08-19T14:23:05;25.22;78.68
69823;SHT31;57119;52.516;13.508;2022-08-19T14:25:31;25.23;79.49
69823;SHT31;57119;52.516;13.508;2022-08-19T14:27:57;25.22;79.38
69823;SHT31;57119;52.516;13.508;2022-08-19T14:30:27;25.22;78.93
69823;SHT31;57119;52.516;13.508;2022-08-19T14:32:54;25.30;79.49
69823;SHT31;57119;52.516;13.508;2022-08-19T14:35:19;25.25;79.09
69823;SHT31;57119;52.516;13.508;2022-08-19T14:37:48;25.02;79.54
69823;SHT31;57119;52.516;13.508;2022-08-19T14:40:16;25.01;80.05
69823;SHT31;57119;52.516;13.508;2022-08-19T14:42:43;25.14;79.64
69823;SHT31;57119;52.516;13.508;2022-08-19T14:45:10;25.14;79.28
69823;SHT31;57119;52.516;13.508;2022-08-19T14:47:38;25.25;78.40
69823;SHT31;57119;52.516;13.508;2022-08-19T14:50:05;25.15;79.32
69823;SHT31;57119;52.516;13.508;2022-08-19T14:52:34;25.09;78.86
69823;SHT31;57119;52.516;13.508;2022-08-19T14:54:59;25.05;78.85
69823;SHT31;57119;52.516;13.508;2022-08-19T14:57:25;25.04;78.23
69823;SHT31;57119;52.516;13.508;2022-08-19T14:59:50;24.92;79.14
69823;SHT31;57119;52.516;13.508;2022-08-19T15:02:16;24.92;78.75
69823;SHT31;57119;52.516;13.508;2022-08-19T15:04:41;24.95;78.98
69823;SHT31;57119;52.516;13.508;2022-08-19T15:07:06;25.02;78.74
69823;SHT31;57119;52.516;13.508;2022-08-19T15:09:32;24.99;78.40
69823;SHT31;57119;52.516;13.508;2022-08-19T15:11:58;24.99;78.56
69823;SHT31;57119;52.516;13.508;2022-08-19T15:14:25;25.01;79.31
69823;SHT31;57119;52.516;13.508;2022-08-19T15:16:51;25.08;78.27
69823;SHT31;57119;52.516;13.508;2022-08-19T15:19:16;24.91;78.40
69823;SHT31;57119;52.516;13.508;2022-08-19T15:21:41;24.91;78.70
69823;SHT31;57119;52.516;13.508;2022-08-19T15:24:07;24.89;78.51
69823;SHT31;57119;52.516;13.508;2022-08-19T15:26:32;24.69;79.22